< < Back
Terminal Aerodrome Forecast


Current Version              Previous Versions:   1  2  3  4  5  6  7  8  9  

Terminal Aerodrome Forecast

135
FTUS44 KMOB 210500 RRA
TAFMOB
TAF
KMOB 210543Z 2106/2206 VRB03KT P6SM SCT200
     FM211400 02006KT P6SM SKC
     FM220200 VRB03KT P6SM SKC=

Latest METAR

200
SAUS80 KWBC 210500
MTRMOB
METAR KMOB 210456Z AUTO 01004KT 10SM CLR 13/12 A3002 RMK AO2 SLP161
T01280117


USA.gov is the U.S. government's official web portal to all federal, state and local government web resources and services.